createdAt,value
2023-03-02T00:00:23.413Z,589.00
2023-03-02T00:01:23.387Z,587.00
2023-03-02T00:02:23.398Z,590.00
2023-03-02T00:03:23.350Z,590.00
2023-03-02T00:04:23.337Z,591.00
2023-03-02T00:05:23.292Z,590.00
2023-03-02T00:06:23.272Z,592.00
2023-03-02T00:07:23.245Z,591.00
2023-03-02T00:08:23.221Z,589.00
2023-03-02T00:09:23.206Z,587.00
2023-03-02T00:10:23.202Z,589.00
2023-03-02T00:11:23.153Z,587.00
2023-03-02T00:12:23.122Z,584.00
2023-03-02T00:13:23.110Z,586.00
2023-03-02T00:14:23.083Z,584.00
2023-03-02T00:15:23.077Z,584.00
2023-03-02T00:16:23.140Z,584.00
2023-03-02T00:17:23.019Z,584.00
2023-03-02T00:18:22.985Z,582.00
2023-03-02T00:19:23.021Z,581.00
2023-03-02T00:20:22.968Z,581.00
2023-03-02T00:21:22.938Z,577.00
2023-03-02T00:22:22.914Z,577.00
2023-03-02T00:23:22.890Z,575.00
2023-03-02T00:24:22.875Z,578.00
2023-03-02T00:25:22.891Z,575.00
2023-03-02T00:26:22.852Z,577.00
2023-03-02T00:27:22.812Z,578.00
2023-03-02T00:28:23.461Z,579.00
2023-03-02T00:29:22.780Z,580.00
2023-03-02T00:30:22.761Z,577.00
2023-03-02T00:31:22.820Z,579.00
2023-03-02T00:32:22.697Z,581.00
2023-03-02T00:33:22.670Z,579.00
2023-03-02T00:34:22.651Z,577.00
2023-03-02T00:35:22.635Z,576.00
2023-03-02T00:36:22.614Z,577.00
2023-03-02T00:37:22.592Z,578.00
2023-03-02T00:38:22.565Z,580.00
2023-03-02T00:39:22.536Z,578.00
2023-03-02T00:40:22.573Z,578.00
2023-03-02T00:41:22.579Z,574.00
2023-03-02T00:42:22.501Z,573.00
2023-03-02T00:43:22.497Z,570.00
2023-03-02T00:44:22.466Z,568.00
2023-03-02T00:45:22.482Z,566.00
2023-03-02T00:46:22.493Z,564.00
2023-03-02T00:47:22.396Z,566.00
2023-03-02T00:48:22.371Z,567.00
2023-03-02T00:49:22.364Z,567.00
2023-03-02T01:23:22.484Z,561.00
2023-03-02T05:30:17.534Z,461.00
2023-03-02T05:31:17.557Z,461.00
2023-03-02T05:32:17.555Z,461.00
2023-03-02T05:33:17.492Z,461.00
2023-03-02T05:34:17.456Z,462.00
2023-03-02T05:35:17.464Z,462.00
2023-03-02T05:36:19.550Z,463.00
2023-03-02T05:37:17.423Z,464.00
2023-03-02T05:38:17.414Z,465.00
2023-03-02T05:39:17.392Z,467.00
2023-03-02T05:40:17.385Z,464.00
2023-03-02T05:41:17.374Z,464.00
2023-03-02T05:42:17.336Z,466.00
2023-03-02T05:43:17.342Z,464.00
2023-03-02T05:44:17.323Z,465.00
2023-03-02T05:45:17.316Z,464.00
2023-03-02T05:46:17.483Z,467.00
2023-03-02T05:47:17.288Z,466.00
2023-03-02T05:48:17.233Z,467.00
2023-03-02T05:49:17.245Z,468.00
2023-03-02T05:50:17.211Z,469.00
2023-03-02T05:51:17.197Z,466.00
2023-03-02T05:52:17.176Z,465.00
2023-03-02T05:53:17.159Z,467.00
2023-03-02T05:54:17.127Z,466.00
2023-03-02T05:55:17.131Z,468.00
2023-03-02T05:56:17.139Z,467.00
2023-03-02T05:57:17.080Z,468.00
2023-03-02T05:58:17.064Z,466.00
2023-03-02T05:59:17.030Z,465.00
2023-03-02T06:00:17.034Z,461.00
2023-03-02T06:01:17.005Z,460.00
2023-03-02T06:02:16.997Z,460.00
2023-03-02T06:03:17.042Z,462.00
2023-03-02T06:04:16.957Z,462.00
2023-03-02T06:05:16.941Z,462.00
2023-03-02T06:06:16.909Z,462.00
2023-03-02T06:07:16.917Z,462.00
2023-03-02T06:08:16.883Z,462.00
2023-03-02T06:09:16.866Z,464.00
2023-03-02T06:10:16.859Z,462.00
2023-03-02T06:11:16.832Z,464.00
2023-03-02T06:12:16.824Z,465.00
2023-03-02T06:13:16.816Z,464.00
2023-03-02T06:14:16.828Z,464.00
2023-03-02T06:15:16.787Z,465.00
2023-03-02T06:16:16.781Z,465.00
2023-03-02T06:17:16.757Z,464.00
2023-03-02T06:18:16.731Z,463.00
2023-03-02T06:19:16.705Z,460.00
2023-03-02T06:20:16.688Z,461.00
2023-03-02T06:21:16.665Z,460.00
2023-03-02T06:22:16.669Z,459.00
2023-03-02T06:23:16.674Z,463.00
2023-03-02T06:24:16.636Z,465.00
2023-03-02T06:25:16.630Z,466.00
2023-03-02T06:26:16.633Z,468.00
2023-03-02T06:27:16.612Z,468.00
2023-03-02T06:28:16.607Z,467.00
2023-03-02T06:29:16.575Z,465.00
2023-03-02T06:30:16.573Z,464.00
2023-03-02T06:31:16.594Z,462.00
2023-03-02T06:32:16.611Z,460.00
2023-03-02T06:33:16.527Z,461.00
2023-03-02T06:34:16.511Z,461.00
2023-03-02T06:35:16.612Z,463.00
2023-03-02T06:36:16.659Z,464.00
2023-03-02T06:37:16.519Z,466.00
2023-03-02T06:38:16.456Z,465.00
2023-03-02T06:39:17.099Z,466.00
2023-03-02T06:40:16.578Z,466.00
2023-03-02T06:41:16.560Z,468.00
2023-03-02T06:42:16.554Z,467.00
2023-03-02T06:43:16.514Z,468.00
2023-03-02T06:44:16.573Z,468.00
2023-03-02T06:45:16.539Z,468.00
2023-03-02T06:46:16.587Z,466.00
2023-03-02T06:47:16.512Z,473.00
2023-03-02T06:49:16.454Z,567.00
2023-03-02T06:51:16.408Z,486.00
2023-03-02T06:52:16.389Z,495.00
2023-03-02T06:53:16.420Z,495.00
2023-03-02T06:54:16.380Z,495.00
2023-03-02T06:55:16.338Z,495.00
2023-03-02T06:56:16.338Z,493.00
2023-03-02T06:57:16.345Z,491.00
2023-03-02T06:58:16.313Z,489.00
2023-03-02T06:59:16.281Z,491.00
2023-03-02T07:00:16.287Z,491.00
2023-03-02T07:01:16.287Z,490.00
2023-03-02T07:03:16.280Z,489.00
2023-03-02T07:04:16.217Z,491.00
2023-03-02T07:05:16.220Z,490.00
2023-03-02T07:06:16.203Z,490.00
2023-03-02T07:07:16.208Z,489.00
2023-03-02T07:08:16.202Z,490.00
2023-03-02T07:09:16.161Z,491.00
2023-03-02T07:10:16.137Z,493.00
2023-03-02T07:11:16.132Z,494.00
2023-03-02T07:12:16.097Z,494.00
2023-03-02T07:13:16.139Z,494.00
2023-03-02T07:15:16.064Z,491.00
2023-03-02T07:16:16.199Z,491.00
2023-03-02T07:17:16.008Z,492.00
2023-03-02T07:18:16.115Z,491.00
2023-03-02T07:19:15.980Z,493.00
2023-03-02T07:20:16.055Z,494.00
2023-03-02T07:21:15.999Z,497.00
2023-03-02T07:22:15.946Z,495.00
2023-03-02T07:23:15.910Z,497.00
2023-03-02T07:24:16.697Z,498.00
2023-03-02T07:25:15.884Z,498.00
2023-03-02T07:26:15.907Z,498.00
2023-03-02T07:27:15.811Z,497.00
2023-03-02T07:29:15.759Z,497.00
2023-03-02T07:30:15.785Z,497.00
2023-03-02T07:32:15.760Z,493.00
2023-03-02T07:33:15.681Z,493.00
2023-03-02T07:34:15.762Z,495.00
2023-03-02T07:35:15.636Z,498.00
2023-03-02T07:36:15.620Z,497.00
2023-03-02T07:37:15.584Z,496.00
2023-03-02T07:38:15.616Z,495.00
2023-03-02T07:39:15.531Z,494.00
2023-03-02T07:40:15.514Z,495.00
2023-03-02T07:41:15.567Z,494.00
2023-03-02T07:42:15.498Z,501.00
2023-03-02T07:43:15.490Z,604.00
2023-03-02T07:44:15.508Z,564.00
2023-03-02T07:45:15.465Z,555.00
2023-03-02T07:46:15.511Z,543.00
2023-03-02T07:47:15.410Z,533.00
2023-03-02T07:48:15.445Z,531.00
2023-03-02T07:49:15.379Z,529.00
2023-03-02T07:50:15.375Z,527.00
2023-03-02T07:51:15.354Z,522.00
2023-03-02T07:53:15.336Z,518.00
2023-03-02T07:54:15.300Z,520.00
2023-03-02T07:55:15.279Z,521.00
2023-03-02T07:56:15.247Z,517.00
2023-03-02T07:58:15.209Z,517.00
2023-03-02T07:59:15.202Z,519.00
2023-03-02T08:00:15.182Z,521.00
2023-03-02T08:01:15.148Z,521.00
2023-03-02T08:02:15.246Z,524.00
2023-03-02T08:03:15.209Z,525.00
2023-03-02T08:04:15.097Z,527.00
2023-03-02T08:05:15.091Z,528.00
2023-03-02T08:06:15.051Z,528.00
2023-03-02T08:07:15.040Z,543.00
2023-03-02T08:08:15.023Z,660.00
2023-03-02T08:09:16.894Z,739.00
2023-03-02T08:10:14.949Z,733.00
2023-03-02T08:15:15.173Z,805.00
2023-03-02T08:16:15.142Z,815.00
2023-03-02T08:17:15.093Z,837.00
2023-03-02T08:18:15.033Z,847.00
2023-03-02T08:20:14.978Z,872.00
2023-03-02T08:21:14.953Z,881.00
2023-03-02T08:22:15.117Z,887.00
2023-03-02T08:23:15.014Z,897.00
2023-03-02T08:25:14.854Z,935.00
2023-03-02T08:26:17.412Z,950.00
2023-03-02T08:27:14.901Z,955.00
2023-03-02T08:28:14.885Z,964.00
2023-03-02T08:30:14.714Z,991.00
2023-03-02T08:32:15.629Z,1027.00
2023-03-02T08:34:14.628Z,1044.00
2023-03-02T08:36:14.590Z,1070.00
2023-03-02T08:37:14.558Z,1070.00
2023-03-02T08:38:14.540Z,1056.00
2023-03-02T08:39:14.493Z,1048.00
2023-03-02T08:40:14.496Z,1045.00
2023-03-02T08:41:14.539Z,1048.00
2023-03-02T08:42:14.428Z,1047.00
2023-03-02T08:43:14.394Z,1044.00
2023-03-02T08:44:14.426Z,1041.00
2023-03-02T08:45:14.396Z,1040.00
2023-03-02T08:46:14.401Z,1033.00
2023-03-02T08:47:14.346Z,1026.00
2023-03-02T08:48:14.341Z,1023.00
2023-03-02T08:49:14.238Z,1013.00
2023-03-02T08:50:14.242Z,1005.00
2023-03-02T08:51:14.280Z,999.00
2023-03-02T08:52:14.413Z,989.00
2023-03-02T08:53:14.212Z,982.00
2023-03-02T08:55:14.212Z,965.00
2023-03-02T08:56:14.108Z,965.00
2023-03-02T08:57:14.102Z,963.00
2023-03-02T08:58:14.169Z,957.00
2023-03-02T08:59:14.045Z,956.00
2023-03-02T09:00:14.005Z,952.00
2023-03-02T09:01:14.276Z,948.00
2023-03-02T09:02:14.064Z,944.00
2023-03-02T09:03:13.946Z,941.00
2023-03-02T09:05:13.913Z,934.00
2023-03-02T09:06:13.901Z,929.00
2023-03-02T09:07:16.306Z,926.00
2023-03-02T09:18:13.884Z,898.00
2023-03-02T09:51:13.056Z,1001.00
2023-03-02T09:52:13.039Z,979.00
2023-03-02T09:53:15.747Z,947.00
2023-03-02T09:54:13.716Z,957.00
2023-03-02T09:55:13.057Z,964.00
2023-03-02T09:56:12.924Z,972.00
2023-03-02T09:57:12.923Z,977.00
2023-03-02T09:58:12.889Z,983.00
2023-03-02T09:59:12.871Z,983.00
2023-03-02T10:00:19.213Z,981.00
2023-03-02T10:01:16.388Z,979.00
2023-03-02T10:02:13.000Z,978.00
2023-03-02T10:03:17.362Z,974.00
2023-03-02T10:04:14.034Z,966.00
2023-03-02T10:05:12.737Z,964.00
2023-03-02T10:06:13.207Z,961.00
2023-03-02T10:07:12.722Z,960.00
2023-03-02T10:08:13.279Z,953.00
2023-03-02T10:09:12.603Z,947.00
2023-03-02T10:10:12.606Z,949.00
2023-03-02T10:11:12.616Z,948.00
2023-03-02T10:12:12.549Z,948.00
2023-03-02T10:13:12.542Z,946.00
2023-03-02T10:14:12.506Z,942.00
2023-03-02T10:15:12.575Z,940.00
2023-03-02T10:16:12.485Z,939.00
2023-03-02T10:17:12.416Z,938.00
2023-03-02T10:18:12.440Z,935.00
2023-03-02T10:20:12.358Z,933.00
2023-03-02T10:27:12.735Z,918.00
2023-03-02T10:28:12.724Z,915.00
2023-03-02T13:22:15.898Z,975.00
2023-03-02T15:18:12.470Z,898.00
2023-03-02T17:01:04.483Z,809.00
2023-03-02T17:02:03.758Z,812.00
2023-03-02T17:03:03.650Z,810.00
2023-03-02T17:05:03.693Z,811.00
2023-03-02T17:06:03.596Z,809.00
2023-03-02T17:07:03.693Z,804.00
2023-03-02T17:08:03.613Z,801.00
2023-03-02T17:10:03.526Z,797.00
2023-03-02T17:11:04.383Z,792.00
2023-03-02T17:12:03.472Z,793.00
2023-03-02T17:13:04.441Z,792.00
2023-03-02T17:14:04.361Z,791.00
2023-03-02T17:15:04.398Z,790.00
2023-03-02T17:16:03.506Z,786.00
2023-03-02T17:17:03.406Z,785.00
2023-03-02T17:18:04.408Z,783.00
2023-03-02T17:19:03.372Z,780.00
2023-03-02T17:20:03.310Z,779.00
2023-03-02T17:21:03.303Z,780.00
2023-03-02T17:22:03.313Z,778.00
2023-03-02T17:23:03.265Z,775.00
2023-03-02T17:24:03.236Z,774.00
2023-03-02T17:25:04.739Z,772.00
2023-03-02T17:26:03.174Z,775.00
2023-03-02T17:27:04.240Z,776.00
2023-03-02T17:28:03.187Z,776.00
2023-03-02T17:29:03.849Z,776.00
2023-03-02T17:30:03.159Z,771.00
2023-03-02T17:31:04.492Z,768.00
2023-03-02T17:32:03.091Z,768.00
2023-03-02T17:33:03.064Z,767.00
2023-03-02T17:34:03.021Z,764.00
2023-03-02T17:35:03.076Z,762.00
2023-03-02T17:37:03.002Z,762.00
2023-03-02T17:38:03.914Z,760.00
2023-03-02T17:39:03.876Z,759.00
2023-03-02T17:40:02.977Z,755.00
2023-03-02T17:41:02.893Z,754.00
2023-03-02T17:42:02.882Z,755.00
2023-03-02T17:43:02.925Z,755.00
2023-03-02T17:44:02.934Z,753.00
2023-03-02T17:45:02.942Z,753.00
2023-03-02T17:46:02.928Z,751.00
2023-03-02T17:47:02.837Z,749.00
2023-03-02T17:48:02.805Z,749.00
2023-03-02T17:49:02.758Z,748.00
2023-03-02T17:50:02.854Z,746.00
2023-03-02T17:51:02.755Z,746.00
2023-03-02T17:52:02.763Z,743.00
2023-03-02T17:53:02.731Z,744.00
2023-03-02T17:54:02.670Z,742.00
2023-03-02T17:55:02.955Z,738.00
2023-03-02T17:56:02.708Z,739.00
2023-03-02T17:57:02.711Z,735.00
2023-03-02T17:58:02.667Z,736.00
2023-03-02T17:59:02.580Z,736.00
2023-03-02T18:00:02.659Z,733.00
2023-03-02T18:01:02.580Z,731.00
2023-03-02T18:02:04.382Z,730.00
2023-03-02T18:03:03.469Z,728.00
2023-03-02T18:04:02.663Z,724.00
2023-03-02T18:05:02.496Z,720.00
2023-03-02T18:06:02.479Z,720.00
2023-03-02T18:07:02.489Z,714.00
2023-03-02T18:08:02.418Z,716.00
2023-03-02T18:09:02.423Z,716.00
2023-03-02T18:10:02.475Z,713.00
2023-03-02T18:11:02.882Z,715.00
2023-03-02T18:12:02.356Z,711.00
2023-03-02T18:17:03.921Z,709.00
2023-03-02T18:29:02.883Z,711.00
2023-03-02T18:36:03.422Z,715.00
2023-03-02T18:38:03.986Z,718.00
2023-03-02T18:45:02.384Z,707.00
2023-03-02T18:53:04.394Z,705.00
2023-03-02T18:54:02.890Z,707.00
2023-03-02T18:56:03.886Z,704.00
2023-03-02T19:12:02.394Z,692.00
2023-03-02T19:15:02.471Z,691.00
2023-03-02T19:19:02.466Z,691.00
2023-03-02T19:20:02.744Z,693.00
2023-03-02T19:27:02.412Z,695.00
2023-03-02T19:37:02.963Z,683.00
2023-03-02T19:41:03.927Z,679.00
2023-03-02T19:46:02.988Z,673.00
2023-03-02T19:56:02.418Z,663.00
2023-03-02T19:59:02.437Z,667.00
2023-03-02T20:05:03.419Z,670.00
2023-03-02T20:51:59.944Z,658.00
2023-03-02T20:52:59.876Z,659.00
2023-03-02T20:53:59.908Z,660.00
2023-03-02T20:54:59.903Z,663.00
2023-03-02T20:55:59.850Z,664.00
2023-03-02T20:56:59.854Z,667.00
2023-03-02T20:59:59.721Z,667.00
2023-03-02T21:00:59.725Z,669.00
2023-03-02T21:02:59.654Z,669.00
2023-03-02T21:03:59.656Z,670.00
2023-03-02T21:04:59.700Z,670.00
2023-03-02T21:05:59.674Z,670.00
2023-03-02T21:06:59.620Z,671.00
2023-03-02T21:07:59.611Z,672.00
2023-03-02T21:08:59.582Z,673.00
2023-03-02T21:10:59.562Z,673.00
2023-03-02T21:11:59.478Z,673.00
2023-03-02T21:12:59.431Z,673.00
2023-03-02T21:13:59.482Z,674.00
2023-03-02T21:14:59.426Z,674.00
2023-03-02T21:15:59.459Z,673.00
2023-03-02T21:17:00.060Z,673.00
2023-03-02T21:17:59.440Z,673.00
2023-03-02T21:18:59.384Z,677.00
2023-03-02T21:19:59.306Z,677.00
2023-03-02T21:20:59.960Z,675.00
2023-03-02T21:21:59.294Z,676.00
2023-03-02T21:22:59.460Z,674.00
2023-03-02T21:23:59.946Z,673.00
2023-03-02T21:24:59.288Z,673.00
2023-03-02T21:25:59.244Z,673.00
2023-03-02T21:26:59.179Z,674.00
2023-03-02T21:27:59.195Z,675.00
2023-03-02T21:28:59.943Z,678.00
2023-03-02T21:29:59.160Z,680.00
2023-03-02T21:30:59.216Z,679.00
2023-03-02T21:31:59.199Z,679.00
2023-03-02T21:32:59.064Z,680.00
2023-03-02T21:33:59.105Z,680.00
2023-03-02T21:34:59.023Z,681.00
2023-03-02T21:35:58.997Z,681.00
2023-03-02T21:36:58.980Z,679.00
2023-03-02T21:37:59.073Z,679.00
2023-03-02T21:38:59.516Z,680.00
2023-03-02T21:39:58.935Z,679.00
2023-03-02T21:40:58.964Z,679.00
2023-03-02T21:41:58.865Z,680.00
2023-03-02T21:42:59.450Z,679.00
2023-03-02T21:43:58.838Z,679.00
2023-03-02T21:44:58.818Z,681.00
2023-03-02T21:45:58.788Z,679.00
2023-03-02T21:46:58.836Z,679.00
2023-03-02T21:47:59.463Z,679.00
2023-03-02T21:48:58.737Z,679.00
2023-03-02T21:49:58.760Z,678.00
2023-03-02T21:50:58.749Z,679.00
2023-03-02T21:51:59.510Z,682.00
2023-03-02T21:52:58.668Z,683.00
2023-03-02T21:53:59.673Z,682.00
2023-03-02T21:54:58.718Z,683.00
2023-03-02T21:55:58.579Z,684.00
2023-03-02T21:56:59.450Z,686.00
2023-03-02T21:57:58.536Z,689.00
2023-03-02T21:58:59.470Z,690.00
2023-03-02T22:00:58.488Z,687.00
2023-03-02T22:01:58.468Z,685.00
2023-03-02T22:03:58.478Z,686.00
2023-03-02T22:04:58.971Z,685.00
2023-03-02T22:05:59.512Z,685.00
2023-03-02T22:06:58.443Z,685.00
2023-03-02T22:07:58.365Z,684.00
2023-03-02T22:08:58.427Z,681.00
2023-03-02T22:09:58.417Z,680.00
2023-03-02T22:10:58.968Z,681.00
2023-03-02T22:11:58.309Z,678.00
2023-03-02T22:12:58.290Z,679.00
2023-03-02T22:13:58.233Z,679.00
2023-03-02T22:14:58.275Z,681.00
2023-03-02T22:15:59.024Z,684.00
2023-03-02T22:16:58.165Z,690.00
2023-03-02T22:17:58.970Z,692.00
2023-03-02T22:18:58.222Z,693.00
2023-03-02T22:19:59.008Z,691.00
2023-03-02T22:20:58.092Z,692.00
2023-03-02T22:21:58.972Z,693.00
2023-03-02T22:22:58.122Z,691.00
2023-03-02T22:23:58.042Z,692.00
2023-03-02T22:24:58.011Z,692.00
2023-03-02T22:25:58.050Z,691.00
2023-03-02T22:26:57.988Z,690.00
2023-03-02T22:27:58.030Z,688.00
2023-03-02T22:28:58.139Z,688.00
2023-03-02T22:29:57.946Z,688.00
2023-03-02T22:30:57.948Z,688.00
2023-03-02T22:31:57.937Z,691.00
2023-03-02T22:32:57.870Z,691.00
2023-03-02T22:33:58.088Z,689.00
2023-03-02T22:34:57.849Z,689.00
2023-03-02T22:35:58.563Z,689.00
2023-03-02T22:36:57.951Z,690.00
2023-03-02T22:37:58.498Z,690.00
2023-03-02T22:38:57.962Z,689.00
2023-03-02T22:39:58.486Z,688.00
2023-03-02T22:40:57.896Z,690.00
2023-03-02T22:41:57.954Z,692.00
2023-03-02T22:42:57.879Z,690.00
2023-03-02T22:44:57.865Z,690.00
2023-03-02T22:45:58.482Z,690.00
2023-03-02T22:46:57.920Z,690.00
2023-03-02T22:47:58.539Z,693.00
2023-03-02T22:48:57.845Z,694.00
2023-03-02T22:49:57.810Z,693.00
2023-03-02T22:50:57.702Z,692.00
2023-03-02T22:51:57.732Z,693.00
2023-03-02T22:52:57.730Z,691.00
2023-03-02T22:54:57.640Z,691.00
2023-03-02T22:55:57.658Z,689.00
2023-03-02T22:56:57.587Z,688.00
2023-03-02T22:57:57.570Z,689.00
2023-03-02T22:58:57.609Z,692.00
2023-03-02T22:59:57.509Z,690.00
2023-03-02T23:00:57.575Z,691.00
2023-03-02T23:01:57.467Z,689.00
2023-03-02T23:02:57.503Z,689.00
2023-03-02T23:03:57.421Z,690.00
2023-03-02T23:04:57.478Z,691.00
2023-03-02T23:05:57.449Z,690.00
2023-03-02T23:06:57.349Z,688.00
2023-03-02T23:07:57.391Z,685.00
2023-03-02T23:08:57.324Z,684.00
2023-03-02T23:09:57.291Z,685.00
2023-03-02T23:10:57.277Z,685.00
2023-03-02T23:11:58.071Z,686.00
2023-03-02T23:12:57.326Z,688.00
2023-03-02T23:13:57.266Z,685.00
2023-03-02T23:14:57.254Z,684.00
2023-03-02T23:15:57.171Z,684.00
2023-03-02T23:16:57.157Z,683.00
2023-03-02T23:17:57.229Z,683.00
2023-03-02T23:18:57.126Z,680.00
2023-03-02T23:19:57.130Z,680.00
2023-03-02T23:20:57.169Z,681.00
2023-03-02T23:21:57.060Z,681.00
2023-03-02T23:22:57.089Z,681.00
2023-03-02T23:24:57.063Z,676.00
2023-03-02T23:25:57.061Z,676.00
2023-03-02T23:26:56.963Z,679.00
2023-03-02T23:27:56.969Z,678.00
2023-03-02T23:28:56.937Z,680.00
2023-03-02T23:29:56.908Z,680.00
2023-03-02T23:30:56.879Z,680.00
2023-03-02T23:31:57.655Z,678.00
2023-03-02T23:32:56.842Z,679.00
2023-03-02T23:33:57.540Z,681.00
2023-03-02T23:34:57.047Z,682.00
2023-03-02T23:35:56.922Z,682.00
2023-03-02T23:36:56.744Z,681.00
2023-03-02T23:37:57.575Z,678.00
2023-03-02T23:39:56.736Z,677.00
2023-03-02T23:40:56.740Z,675.00
2023-03-02T23:41:56.738Z,671.00
2023-03-02T23:42:57.500Z,672.00
2023-03-02T23:43:56.640Z,671.00
2023-03-02T23:44:56.556Z,669.00
2023-03-02T23:45:56.597Z,666.00
2023-03-02T23:46:56.520Z,669.00
2023-03-02T23:47:56.519Z,669.00
2023-03-02T23:48:57.047Z,667.00
2023-03-02T23:49:56.459Z,669.00
2023-03-02T23:50:56.438Z,671.00
2023-03-02T23:51:56.431Z,674.00
2023-03-02T23:52:56.467Z,676.00
2023-03-02T23:53:56.440Z,675.00
2023-03-02T23:54:56.351Z,673.00
2023-03-02T23:55:57.489Z,676.00
2023-03-02T23:56:56.326Z,679.00
2023-03-02T23:57:56.337Z,680.00
2023-03-02T23:58:56.267Z,679.00
2023-03-02T23:59:56.325Z,677.00
